Welcome to Northern Hawkes Bay. New Zealand.
PWS Header
      nz Flag



Hit Counter


W3C Valid W3C Valid logo


    Wairoa

Select any of the Stations below to visit their websites.










Historic Data from Weather Underground
Select the location of interest below. Wairoa is the default. Please have patience, this Data is slow to load in.
Northern Hawkes Bay Historical Data
Daily Summary for December 7, 2017 Units:  English    Metric   Both
« Previous Day
Next Day »
Daily Weekly Monthly Yearly Custom
  High: Low: Average:
Temperature: 76.8 °F 62.2 °F 69.4 °F
Dew Point: 63.9 °F 57.7 °F 61.3 °F
Humidity: 92% 56% 76%
Wind Speed: 6.9mph 0mph 1.5mph
Wind Gust: 13mph - -
Wind- - SE
Pressure: 30.1 in 30 in -
Precipitation: 0 in    
Historical Graphs
 
 
Tabular Data for December 7, 2017
Time Temperature Dew Point Pressure Wind Wind Speed Wind Gust Humidity Rainfall Rate (Hourly) solar
00:02 66.2 °F 61.2 °F 30.1 in Calm   3.1 mph 84% 0 in 0 W/m2
00:07 66 °F 61.3 °F 30.1 in ESE 0.7 mph 3.1 mph 85% 0 in 0 W/m2
00:12 66 °F 61.3 °F 30.1 in Calm   3.1 mph 85% 0 in 0 W/m2
00:17 66 °F 61.3 °F 30.1 in Calm   3.1 mph 85% 0 in 0 W/m2
00:35 66.2 °F 59.9 °F 30.1 in Calm   3.1 mph 80% 0 in 0 W/m2
00:40 66.2 °F 59.9 °F 30.1 in SE 0.7 mph 3.1 mph 80% 0 in 0 W/m2
00:45 66.2 °F 60.3 °F 30.1 in Calm   3.1 mph 81% 0 in 0 W/m2
00:50 66.2 °F 60.6 °F 30.1 in Calm   3.1 mph 82% 0 in 0 W/m2
00:55 66 °F 61.2 °F 30.1 in Calm   1.6 mph 84% 0 in 0 W/m2
01:00 66 °F 61.3 °F 30.1 in Calm   2.2 mph 85% 0 in 0 W/m2
01:06 65.8 °F 61.5 °F 30.1 in Calm   2.2 mph 86% 0 in 0 W/m2
01:11 65.7 °F 61.7 °F 30.1 in Calm   0.7 mph 87% 0 in 0 W/m2
01:16 65.5 °F 61.5 °F 30.1 in Calm   0.7 mph 87% 0 in 0 W/m2
01:22 65.5 °F 61.5 °F 30.1 in Calm   1.6 mph 87% 0 in 0 W/m2
01:27 65.5 °F 61.9 °F 30.1 in Calm   1.6 mph 88% 0 in 0 W/m2
01:32 65.5 °F 62.2 °F 30.1 in Calm   1.6 mph 89% 0 in 0 W/m2
01:37 65.5 °F 62.4 °F 30.1 in NW 0.7 mph 2.2 mph 90% 0 in 0 W/m2
01:42 65.5 °F 62.8 °F 30.1 in NW 1.6 mph 2.2 mph 91% 0 in 0 W/m2
01:47 65.5 °F 62.8 °F 30.1 in Calm   2.2 mph 91% 0 in 0 W/m2
01:52 65.3 °F 62.6 °F 30.1 in Calm   2.2 mph 91% 0 in 0 W/m2
01:57 65.3 °F 62.2 °F 30.1 in Calm   1.6 mph 90% 0 in 0 W/m2
02:02 65.3 °F 62.2 °F 30.1 in Calm   1.6 mph 90% 0 in 0 W/m2
02:07 65.3 °F 62.2 °F 30.1 in Calm   1.6 mph 90% 0 in 0 W/m2
02:12 65.3 °F 62.2 °F 30.1 in Calm   1.6 mph 90% 0 in 0 W/m2
02:17 65.3 °F 62.1 °F 30.1 in Calm     89% 0 in 0 W/m2
02:22 65.3 °F 61.7 °F 30.1 in Calm     88% 0 in 0 W/m2
02:27 65.3 °F 61.7 °F 30.1 in Calm     88% 0 in 0 W/m2
02:32 65.3 °F 61.7 °F 30.1 in Calm     88% 0 in 0 W/m2
02:37 65.3 °F 61.7 °F 30.1 in Calm   2.2 mph 88% 0 in 0 W/m2
02:42 65.3 °F 61.7 °F 30.1 in Calm   2.2 mph 88% 0 in 0 W/m2
02:47 65.3 °F 61.7 °F 30.1 in Calm   2.2 mph 88% 0 in 0 W/m2
02:52 65.3 °F 61.7 °F 30.1 in Calm   2.2 mph 88% 0 in 0 W/m2
02:57 65.3 °F 61.7 °F 30.1 in Calm   1.6 mph 88% 0 in 0 W/m2
03:02 65.3 °F 61.7 °F 30.1 in Calm   1.6 mph 88% 0 in 0 W/m2
03:07 65.1 °F 61.5 °F 30.1 in Calm   1.6 mph 88% 0 in 0 W/m2
03:12 65.1 °F 61.5 °F 30.1 in Calm   1.6 mph 88% 0 in 0 W/m2
03:17 65.1 °F 61.5 °F 30.1 in SW 0.7 mph 2.2 mph 88% 0 in 0 W/m2
03:22 65.1 °F 61.5 °F 30.1 in SW 1.6 mph 3.1 mph 88% 0 in 0 W/m2
03:27 65.1 °F 61.5 °F 30.1 in Calm   3.1 mph 88% 0 in 0 W/m2
03:32 65.1 °F 61.2 °F 30.1 in SW 0.7 mph 3.1 mph 87% 0 in 0 W/m2
03:37 65.3 °F 61.3 °F 30.1 in SW 0.7 mph 3.1 mph 87% 0 in 0 W/m2
03:42 65.3 °F 61.3 °F 30.1 in SW 1.6 mph 3.8 mph 87% 0 in 0 W/m2
03:47 65.3 °F 61.7 °F 30.1 in South 0.7 mph 3.8 mph 88% 0 in 0 W/m2
03:52 65.1 °F 61.5 °F 30.1 in SSE 1.6 mph 3.8 mph 88% 0 in 0 W/m2
03:57 65.1 °F 61.9 °F 30.1 in ESE 0.7 mph 3.8 mph 89% 0 in 0 W/m2
04:02 64.9 °F 61.3 °F 30.1 in East 0.7 mph 3.8 mph 88% 0 in 0 W/m2
04:07 64.9 °F 61.3 °F 30.1 in East 0.7 mph 3.1 mph 88% 0 in 0 W/m2
04:12 65.1 °F 61.5 °F 30.1 in East 1.6 mph 3.1 mph 88% 0 in 0 W/m2
04:17 65.1 °F 61.5 °F 30.1 in East 0.7 mph 3.1 mph 88% 0 in 0 W/m2
04:22 64.9 °F 61.5 °F 30.1 in Calm   2.2 mph 89% 0 in 0 W/m2
04:27 64.9 °F 61.5 °F 30.1 in Calm   3.1 mph 89% 0 in 0 W/m2
04:32 64.9 °F 61.5 °F 30.1 in Calm   3.1 mph 89% 0 in 0 W/m2
04:37 64.9 °F 61.5 °F 30.1 in Calm     89% 0 in 0 W/m2
04:42 64.9 °F 62.1 °F 30.1 in East 1.6 mph 3.1 mph 90% 0 in 0 W/m2
04:47 64.9 °F 62.1 °F 30.1 in Calm   3.1 mph 90% 0 in 0 W/m2
04:52 64.8 °F 62.1 °F 30.1 in Calm   2.2 mph 91% 0 in 0 W/m2
04:57 64.8 °F 62.1 °F 30.1 in Calm     91% 0 in 0 W/m2
05:02 64.8 °F 62.1 °F 30.1 in Calm     91% 0 in 0 W/m2
05:07 64.8 °F 62.1 °F 30.1 in Calm   1.6 mph 91% 0 in 0 W/m2
05:12 64.8 °F 62.1 °F 30.1 in Calm   2.2 mph 91% 0 in 0 W/m2
05:17 64.6 °F 61.9 °F 30.1 in East 0.7 mph 2.2 mph 91% 0 in 0 W/m2
05:22 64.6 °F 62.2 °F 30.1 in Calm   2.2 mph 92% 0 in 0 W/m2
05:27 64.6 °F 62.2 °F 30.1 in Calm   1.6 mph 92% 0 in 0 W/m2
05:32 64.6 °F 62.2 °F 30.1 in Calm   1.6 mph 92% 0 in 0 W/m2
05:37 64.6 °F 62.2 °F 30.1 in Calm   1.6 mph 92% 0 in 0 W/m2
05:42 64.6 °F 62.2 °F 30.1 in East 0.7 mph 2.2 mph 92% 0 in 0 W/m2
05:47 64.6 °F 62.2 °F 30.1 in Calm   2.2 mph 92% 0 in 0 W/m2
05:52 64.6 °F 62.2 °F 30.1 in Calm   1.6 mph 92% 0 in 1 W/m2
05:57 64.6 °F 62.2 °F 30.1 in Calm   1.6 mph 92% 0 in 4 W/m2
06:02 64.8 °F 62.4 °F 30.1 in Calm   1.6 mph 92% 0 in 7 W/m2
06:07 64.8 °F 62.1 °F 30.1 in East 0.7 mph 2.2 mph 91% 0 in 11 W/m2
06:12 64.8 °F 62.1 °F 30.1 in Calm   2.2 mph 91% 0 in 13 W/m2
06:17 64.9 °F 62.2 °F 30.1 in East 0.7 mph 2.2 mph 91% 0 in 17 W/m2
06:22 65.1 °F 62.1 °F 30.1 in East 0.7 mph 2.2 mph 90% 0 in 20 W/m2
06:27 65.1 °F 62.1 °F 30.1 in East 0.7 mph 1.6 mph 90% 0 in 24 W/m2
06:32 65.3 °F 62.2 °F 30.1 in Calm   1.6 mph 90% 0 in 29 W/m2
06:37 65.3 °F 62.2 °F 30.1 in Calm   1.6 mph 90% 0 in 37 W/m2
06:42 65.5 °F 62.4 °F 30.1 in Calm     90% 0 in 36 W/m2
06:47 65.7 °F 62.8 °F 30.1 in Calm     90% 0 in 37 W/m2
06:52 65.8 °F 62.8 °F 30.1 in Calm     90% 0 in 46 W/m2
06:57 66 °F 63 °F 30.1 in Calm     90% 0 in 52 W/m2
07:02 66.4 °F 62.8 °F 30.1 in Calm     88% 0 in 61 W/m2
07:07 66.7 °F 63.1 °F 30.1 in Calm     88% 0 in 73 W/m2
07:12 67.1 °F 63.5 °F 30.1 in Calm     88% 0 in 76 W/m2
07:17 67.5 °F 63.9 °F 30.1 in Calm     88% 0 in 74 W/m2
07:22 67.3 °F 63 °F 30.1 in ENE 1.6 mph 2.2 mph 86% 0 in 74 W/m2
07:27 66.9 °F 62.2 °F 30.1 in East 0.7 mph 2.2 mph 85% 0 in 69 W/m2
07:32 66.9 °F 62.2 °F 30.1 in ESE 0.7 mph 2.2 mph 85% 0 in 66 W/m2
07:37 66.7 °F 62.4 °F 30.1 in East 0.7 mph 2.2 mph 86% 0 in 64 W/m2
07:42 66.7 °F 62.4 °F 30.1 in Calm   2.2 mph 86% 0 in 61 W/m2
07:47 66.7 °F 62.4 °F 30.1 in East 1.6 mph 2.2 mph 86% 0 in 61 W/m2
07:52 66.7 °F 62.4 °F 30.1 in ENE 1.6 mph 3.1 mph 86% 0 in 56 W/m2
07:57 66.6 °F 62.6 °F 30.1 in ENE 4.5 mph 6 mph 87% 0 in 45 W/m2
08:00 66.2 °F 62.2 °F 30.1 in ENE 2.2 mph 6 mph 87% 0 in 46 W/m2
08:05 66.2 °F 62.2 °F 30.1 in East 1.6 mph 6 mph 87% 0 in 57 W/m2
08:10 66.2 °F 62.2 °F 30.1 in ESE 0.7 mph 3.8 mph 87% 0 in 69 W/m2
08:15 66.2 °F 61.9 °F 30.1 in Calm   3.8 mph 86% 0 in 81 W/m2
08:20 66.2 °F 61.5 °F 30.1 in East 1.6 mph 4.5 mph 85% 0 in 88 W/m2
08:25 66.4 °F 61.9 °F 30.1 in East 0.7 mph 4.5 mph 85% 0 in 99 W/m2
08:31 66.7 °F 61.9 °F 30.1 in ENE 1.6 mph 3.8 mph 84% 0 in 115 W/m2
08:36 66.9 °F 62.1 °F 30.1 in East 1.6 mph 3.8 mph 84% 0 in 121 W/m2
08:41 67.5 °F 62.4 °F 30.1 in Calm   3.8 mph 84% 0 in 122 W/m2
08:46 67.8 °F 62.4 °F 30.1 in East 0.7 mph 3.8 mph 83% 0 in 128 W/m2
08:51 67.8 °F 62.1 °F 30.1 in East 0.7 mph 3.1 mph 82% 0 in 132 W/m2
08:56 68.2 °F 62.2 °F 30.1 in Calm   3.1 mph 81% 0 in 147 W/m2
09:01 68.5 °F 62.2 °F 30.1 in Calm   3.1 mph 80% 0 in 148 W/m2
09:06 68.9 °F 62.1 °F 30.1 in Calm   3.1 mph 79% 0 in 153 W/m2
09:11 69.4 °F 62.2 °F 30.1 in Calm   3.1 mph 78% 0 in 155 W/m2
09:16 69.4 °F 62.2 °F 30.1 in SSE 1.6 mph 5.4 mph 78% 0 in 164 W/m2
09:21 69.4 °F 62.2 °F 30.1 in SE 0.7 mph 5.4 mph 78% 0 in 174 W/m2
09:22 69.4 °F 62.2 °F 30.1 in SE 1.6 mph 5.4 mph 78% 0 in 177 W/m2
09:27 69.1 °F 62.1 °F 30.1 in East 3.1 mph 5.4 mph 78% 0 in 178 W/m2
09:32 69.1 °F 62.1 °F 30.1 in SE 2.2 mph 5.4 mph 78% 0 in 171 W/m2
09:37 68.9 °F 61.9 °F 30.1 in SSE 0.7 mph 6.9 mph 78% 0 in 173 W/m2
09:42 68.9 °F 62.1 °F 30.1 in SE 2.2 mph 6.9 mph 79% 0 in 178 W/m2
09:47 68.9 °F 62.4 °F 30.1 in SE 1.6 mph 6 mph 80% 0 in 185 W/m2
09:52 69.1 °F 62.8 °F 30.1 in SE 1.6 mph 5.4 mph 80% 0 in 191 W/m2
09:57 69.1 °F 62.2 °F 30.1 in ESE 3.1 mph 6.9 mph 79% 0 in 213 W/m2
10:02 69.4 °F 62.8 °F 30.1 in ESE 0.7 mph 6.9 mph 79% 0 in 243 W/m2
10:07 70 °F 62.4 °F 30.1 in SE 2.2 mph 5.4 mph 77% 0 in 259 W/m2
10:12 70.5 °F 62.2 °F 30.1 in SE 1.6 mph 6 mph 75% 0 in 278 W/m2
10:17 71.1 °F 62.4 °F 30.1 in SE 3.1 mph 6 mph 74% 0 in 302 W/m2
10:22 71.4 °F 62.2 °F 30.1 in SE 0.7 mph 6 mph 73% 0 in 326 W/m2
10:27 71.6 °F 61.7 °F 30.1 in SSE 3.1 mph 6.9 mph 71% 0 in 307 W/m2
10:32 71.2 °F 61.9 °F 30.1 in SE 0.7 mph 9.2 mph 72% 0 in 328 W/m2
10:37 71.8 °F 61.9 °F 30.1 in SSE 0.7 mph 9.2 mph 71% 0 in 318 W/m2
10:42 72 °F 61.7 °F 30.1 in SSE 1.6 mph 6 mph 70% 0 in 332 W/m2
10:47 72.1 °F 61.9 °F 30.1 in SE 3.1 mph 6 mph 70% 0 in 356 W/m2
10:52 72.1 °F 61.3 °F 30.1 in SE 0.7 mph 6 mph 69% 0 in 331 W/m2
10:57 72 °F 61 °F 30.1 in SE 1.6 mph 7.6 mph 68% 0 in 345 W/m2
11:02 71.8 °F 60.6 °F 30.1 in SE 3.8 mph 7.6 mph 68% 0 in 398 W/m2
11:07 72.1 °F 61 °F 30.1 in SE 1.6 mph 6.9 mph 68% 0 in 415 W/m2
11:12 72.3 °F 60.8 °F 30.1 in ESE 4.5 mph 6.9 mph 67% 0 in 415 W/m2
11:17 72.3 °F 60.8 °F 30.1 in ESE 3.1 mph 7.6 mph 67% 0 in 441 W/m2
11:22 72.5 °F 61 °F 30.1 in SE 3.8 mph 7.6 mph 67% 0 in 441 W/m2
11:27 72.7 °F 60.6 °F 30.1 in SSE 0.7 mph 6.9 mph 66% 0 in 498 W/m2
11:32 73.6 °F 61.5 °F 30.1 in SSE 2.2 mph 6.9 mph 66% 0 in 654 W/m2
11:37 73.2 °F 60.3 °F 30.1 in SSE 3.1 mph 8.3 mph 64% 0 in 479 W/m2
11:42 72.9 °F 60.4 °F 30.1 in SSE 3.8 mph 9.8 mph 65% 0 in 468 W/m2
11:47 72.3 °F 60.8 °F 30.1 in SE 2.2 mph 10.7 mph 67% 0 in 549 W/m2
11:52 72.7 °F 60.6 °F 30.1 in SSE 3.8 mph 10.7 mph 66% 0 in 473 W/m2
11:57 72.7 °F 60.3 °F 30.1 in Calm   9.8 mph 65% 0 in 455 W/m2
12:02 73 °F 60.6 °F 30.1 in SE 3.8 mph 8.3 mph 65% 0 in 631 W/m2
12:07 73.8 °F 61.7 °F 30.1 in ESE 3.1 mph 7.6 mph 66% 0 in 482 W/m2
12:12 73.2 °F 61.2 °F 30.1 in ESE 5.4 mph 7.6 mph 66% 0 in 514 W/m2
12:17 73 °F 60.6 °F 30.1 in SE 2.2 mph 8.3 mph 65% 0 in 630 W/m2
12:22 72.5 °F 60.4 °F 30.1 in SE 4.5 mph 8.3 mph 66% 0 in 636 W/m2
12:27 72.9 °F 61 °F 30.1 in SSE 5.4 mph 9.2 mph 66% 0 in 515 W/m2
12:32 73.2 °F 60.8 °F 30.1 in SSE 2.2 mph 9.2 mph 65% 0 in 642 W/m2
12:37 73.4 °F 61.3 °F 30.1 in SE 3.1 mph 9.2 mph 66% 0 in 992 W/m2
12:42 74.1 °F 61.5 °F 30.1 in SE 3.1 mph 9.2 mph 65% 0 in 726 W/m2
12:47 73.9 °F 61.5 °F 30.1 in SE 3.1 mph 9.2 mph 65% 0 in 739 W/m2
12:52 73.9 °F 61.5 °F 30.1 in SE 6 mph 9.2 mph 65% 0 in 975 W/m2
12:57 73.6 °F 60.6 °F 30.1 in SSE 5.4 mph 9.2 mph 64% 0 in 899 W/m2
13:02 74.1 °F 62.1 °F 30.1 in SSE 1.6 mph 9.2 mph 66% 0 in 871 W/m2
13:07 74.5 °F 62.1 °F 30.1 in SSE 2.2 mph 8.3 mph 65% 0 in 835 W/m2
13:12 74.8 °F 61.9 °F 30.1 in SE 2.2 mph 10.7 mph 64% 0 in 835 W/m2
13:17 74.3 °F 61 °F 30.1 in ESE 1.6 mph 10.7 mph 63% 0 in 827 W/m2
13:22 73.4 °F 61 °F 30.1 in SSE 5.4 mph 10.7 mph 65% 0 in 819 W/m2
13:27 73.8 °F 61.3 °F 30.1 in SSE 2.2 mph 10.7 mph 65% 0 in 823 W/m2
13:32 74.3 °F 61 °F 30.1 in SE 3.8 mph 9.2 mph 63% 0 in 855 W/m2
13:37 74.3 °F 59.5 °F 30.1 in SE 2.2 mph 9.2 mph 60% 0 in 812 W/m2
13:42 74.8 °F 59.2 °F 30.1 in ESE 3.8 mph 9.2 mph 58% 0 in 804 W/m2
13:47 74.7 °F 58.8 °F 30.1 in East 2.2 mph 7.6 mph 58% 0 in 802 W/m2
13:52 75 °F 59.4 °F 30.1 in ESE 2.2 mph 10.7 mph 58% 0 in 736 W/m2
13:57 75.2 °F 58.5 °F 30.1 in SE 3.1 mph 10.7 mph 56% 0 in 787 W/m2
14:02 75.2 °F 58.5 °F 30.1 in SE 3.1 mph 10.7 mph 56% 0 in 773 W/m2
14:07 74.8 °F 59.5 °F 30.1 in SE 2.2 mph 10.7 mph 59% 0 in 768 W/m2
14:12 75 °F 58.8 °F 30.1 in ESE 3.8 mph 10.7 mph 57% 0 in 761 W/m2
14:17 74.8 °F 59.2 °F 30.1 in SE 3.8 mph 9.2 mph 58% 0 in 755 W/m2
14:22 75.2 °F 59 °F 30.1 in SE 1.6 mph 9.8 mph 57% 0 in 748 W/m2
14:27 75.2 °F 59 °F 30.1 in SE 4.5 mph 9.8 mph 57% 0 in 744 W/m2
14:32 75.4 °F 59.5 °F 30.1 in SE 3.8 mph 8.3 mph 58% 0 in 735 W/m2
14:37 75.6 °F 59.7 °F 30.1 in SE 3.1 mph 9.8 mph 58% 0 in 727 W/m2
14:42 75 °F 59.7 °F 30.1 in SE 3.1 mph 9.8 mph 59% 0 in 717 W/m2
14:47 75.2 °F 59.4 °F 30.1 in SE 1.6 mph 9.8 mph 58% 0 in 709 W/m2
14:52 75.4 °F 59.2 °F 30.1 in SSE 2.2 mph 9.2 mph 57% 0 in 697 W/m2
14:57 75.9 °F 59.2 °F 30.1 in SE 3.1 mph 9.2 mph 56% 0 in 694 W/m2
15:02 75.4 °F 59.2 °F 30.1 in SE 3.8 mph 9.2 mph 57% 0 in 685 W/m2
15:07 75.4 °F 59.2 °F 30.1 in SSE 3.8 mph 12.1 mph 57% 0 in 676 W/m2
15:12 75.6 °F 59.7 °F 30.1 in SSE 3.8 mph 12.1 mph 58% 0 in 670 W/m2
15:17 75.9 °F 59.2 °F 30.1 in SE 3.1 mph 9.8 mph 56% 0 in 659 W/m2
15:22 75.9 °F 59.5 °F 30.1 in ESE 3.1 mph 9.8 mph 57% 0 in 648 W/m2
15:27 75.6 °F 59.7 °F 30.1 in ESE 5.4 mph 10.7 mph 58% 0 in 633 W/m2
15:32 75.4 °F 59.2 °F 30.1 in SE 4.5 mph 10.7 mph 57% 0 in 627 W/m2
15:37 75 °F 60.3 °F 30.1 in SE 4.5 mph 9.8 mph 60% 0 in 616 W/m2
15:42 75.2 °F 59.9 °F 30.1 in ESE 4.5 mph 9.8 mph 59% 0 in 602 W/m2
15:47 75.4 °F 60.1 °F 30.1 in SE 5.4 mph 10.7 mph 59% 0 in 596 W/m2
15:52 75.2 °F 60.4 °F 30.1 in SE 3.8 mph 10.7 mph 60% 0 in 585 W/m2
15:57 75.2 °F 60.4 °F 30.1 in ESE 3.1 mph 9.2 mph 60% 0 in 577 W/m2
16:02 75.4 °F 59.5 °F 30.1 in ESE 5.4 mph 11.4 mph 58% 0 in 561 W/m2
16:07 75 °F 60.3 °F 30.1 in East 3.8 mph 11.4 mph 60% 0 in 551 W/m2
16:16 75.6 °F 61.2 °F 30 in SE 2.2 mph 9.8 mph 61% 0 in 534 W/m2
16:21 75.2 °F 59.9 °F 30.1 in SE 2.2 mph 10.7 mph 59% 0 in 523 W/m2
16:23 75 °F 60.3 °F 30 in SE 5.4 mph 13 mph 60% 0 in 524 W/m2
16:25 75.2 °F 59.9 °F 30 in SE 4.5 mph 13 mph 59% 0 in 517 W/m2
16:31 75.2 °F 59.9 °F 30 in SE 5.4 mph 13 mph 59% 0 in 505 W/m2
16:36 74.8 °F 60.4 °F 30 in ESE 5.4 mph 12.1 mph 61% 0 in 494 W/m2
16:41 75 °F 61.5 °F 30 in SE 3.1 mph 10.7 mph 63% 0 in 482 W/m2
16:46 75.4 °F 61 °F 30 in ESE 3.1 mph 9.2 mph 61% 0 in 469 W/m2
16:51 75.7 °F 61.3 °F 30 in ESE 3.8 mph 9.2 mph 61% 0 in 460 W/m2
16:56 75.6 °F 61.7 °F 30 in SE 2.2 mph 9.2 mph 62% 0 in 446 W/m2
17:01 75.7 °F 61.3 °F 30 in SE 1.6 mph 9.2 mph 61% 0 in 433 W/m2
17:06 75.2 °F 60.4 °F 30 in SSE 6.9 mph 10.7 mph 60% 0 in 423 W/m2
17:11 74.7 °F 61.7 °F 30 in SSE 3.1 mph 11.4 mph 64% 0 in 406 W/m2
17:16 74.5 °F 62.1 °F 30 in SE 4.5 mph 11.4 mph 65% 0 in 393 W/m2
17:21 74.8 °F 61.9 °F 30 in ESE 3.8 mph 11.4 mph 64% 0 in 380 W/m2
17:26 74.5 °F 61.5 °F 30 in ESE 6 mph 9.8 mph 64% 0 in 368 W/m2
17:31 74.5 °F 62.1 °F 30 in SE 2.2 mph 9.8 mph 65% 0 in 358 W/m2
17:36 74.8 °F 61.9 °F 30 in ESE 3.8 mph 10.7 mph 64% 0 in 344 W/m2
17:42 74.5 °F 62.1 °F 30 in ESE 4.5 mph 10.7 mph 65% 0 in 328 W/m2
17:47 74.5 °F 62.4 °F 30 in ESE 5.4 mph 10.7 mph 66% 0 in 318 W/m2
17:52 74.7 °F 62.1 °F 30 in SE 3.8 mph 9.8 mph 65% 0 in 305 W/m2
17:57 74.1 °F 62.1 °F 30 in SE 4.5 mph 8.3 mph 66% 0 in 292 W/m2
18:02 73.9 °F 61.9 °F 30 in SE 6.9 mph 9.8 mph 66% 0 in 282 W/m2
18:07 73.6 °F 62.1 °F 30 in SE 4.5 mph 9.8 mph 67% 0 in 268 W/m2
18:12 73.8 °F 62.2 °F 30 in SE 3.8 mph 9.8 mph 67% 0 in 256 W/m2
18:17 73.2 °F 61.5 °F 30 in ESE 5.4 mph 13 mph 67% 0 in 245 W/m2
18:22 73.6 °F 62.4 °F 30 in ESE 3.8 mph 13 mph 68% 0 in 233 W/m2
18:27 73.6 °F 62.1 °F 30 in ESE 3.1 mph 9.8 mph 67% 0 in 223 W/m2
18:32 73.8 °F 62.6 °F 30 in ESE 3.8 mph 9.8 mph 68% 0 in 213 W/m2
18:37 73.2 °F 61.5 °F 30 in ESE 2.2 mph 12.1 mph 67% 0 in 201 W/m2
18:42 73.4 °F 61.9 °F 30 in ESE 3.8 mph 12.1 mph 67% 0 in 194 W/m2
18:47 74.1 °F 62.4 °F 30 in SE 0.7 mph 7.6 mph 67% 0 in 181 W/m2
18:52 75 °F 63 °F 30 in Calm   6.9 mph 66% 0 in 172 W/m2
18:57 76.1 °F 63.1 °F 30 in ESE 1.6 mph 5.4 mph 64% 0 in 163 W/m2
19:02 75.9 °F 63 °F 30 in Calm   3.8 mph 64% 0 in 153 W/m2
19:07 76.1 °F 63.1 °F 30 in Calm   3.8 mph 64% 0 in 143 W/m2
19:12 75.7 °F 61.9 °F 30 in Calm   3.1 mph 62% 0 in 132 W/m2
19:17 75.4 °F 62.4 °F 30 in East 2.2 mph 3.8 mph 64% 0 in 123 W/m2
19:22 75.2 °F 62.2 °F 30 in East 0.7 mph 3.8 mph 64% 0 in 114 W/m2
19:27 75.2 °F 62.2 °F 30 in Calm   3.8 mph 64% 0 in 104 W/m2
19:32 76.6 °F 63.1 °F 30 in Calm   1.6 mph 63% 0 in 93 W/m2
19:37 76.1 °F 62.6 °F 30 in Calm   0.7 mph 63% 0 in 82 W/m2
19:42 76.8 °F 63 °F 30 in Calm   0.7 mph 62% 0 in 70 W/m2
19:47 75.9 °F 63 °F 30 in Calm   0.7 mph 64% 0 in 56 W/m2
19:52 75.7 °F 62.8 °F 30 in Calm   0.7 mph 64% 0 in 44 W/m2
19:58 75.2 °F 62.2 °F 30 in Calm   0.7 mph 64% 0 in 35 W/m2
20:03 73.4 °F 62.2 °F 30 in Calm   0.7 mph 68% 0 in 22 W/m2
20:08 71.6 °F 61.3 °F 30 in Calm     70% 0 in 11 W/m2
20:13 70.3 °F 61.3 °F 30 in Calm     73% 0 in 6 W/m2
20:18 69.3 °F 61.9 °F 30 in NW 1.6 mph 3.1 mph 77% 0 in 4 W/m2
20:23 68.7 °F 62.1 °F 30 in Calm   3.1 mph 79% 0 in 1 W/m2
20:28 68.5 °F 62.4 °F 30 in NNW 1.6 mph 3.1 mph 81% 0 in 0 W/m2
20:33 68.2 °F 62.2 °F 30.1 in NNW 2.2 mph 4.5 mph 81% 0 in 0 W/m2
20:38 67.8 °F 62.4 °F 30.1 in Calm   4.5 mph 83% 0 in 0 W/m2
20:43 67.6 °F 62.8 °F 30.1 in NNW 0.7 mph 4.5 mph 84% 0 in 0 W/m2
20:48 67.5 °F 62.4 °F 30.1 in NNW 1.6 mph 4.5 mph 84% 0 in 0 W/m2
20:53 67.1 °F 62.1 °F 30.1 in NNW 1.6 mph 4.5 mph 84% 0 in 0 W/m2
20:58 66.9 °F 62.2 °F 30.1 in NNW 0.7 mph 4.5 mph 85% 0 in 0 W/m2
21:03 66.7 °F 62.1 °F 30.1 in Calm   3.8 mph 85% 0 in 0 W/m2
21:08 66.6 °F 61.9 °F 30.1 in NE 1.6 mph 3.1 mph 85% 0 in 0 W/m2
21:13 66.4 °F 61.3 °F 30.1 in Calm   2.2 mph 84% 0 in 0 W/m2
21:18 66 °F 61.3 °F 30.1 in Calm   2.2 mph 85% 0 in 0 W/m2
21:23 65.7 °F 61.2 °F 30.1 in Calm   1.6 mph 85% 0 in 0 W/m2
21:28 65.7 °F 60.6 °F 30.1 in NE 0.7 mph 3.1 mph 84% 0 in 0 W/m2
21:33 65.5 °F 60.4 °F 30.1 in Calm   3.1 mph 84% 0 in 0 W/m2
21:38 65.3 °F 60.1 °F 30.1 in Calm   3.1 mph 83% 0 in 0 W/m2
21:43 65.1 °F 59.7 °F 30.1 in Calm   1.6 mph 83% 0 in 0 W/m2
21:48 64.9 °F 59.7 °F 30.1 in Calm   0.7 mph 83% 0 in 0 W/m2
21:53 64.6 °F 59.4 °F 30.1 in Calm   0.7 mph 83% 0 in 0 W/m2
21:58 64.4 °F 59.5 °F 30.1 in Calm   0.7 mph 84% 0 in 0 W/m2
22:03 64.2 °F 59 °F 30.1 in Calm   0.7 mph 83% 0 in 0 W/m2
22:08 64 °F 59.2 °F 30.1 in Calm   0.7 mph 84% 0 in 0 W/m2
22:13 64 °F 58.8 °F 30.1 in Calm   1.6 mph 83% 0 in 0 W/m2
22:18 63.9 °F 58.6 °F 30.1 in Calm   2.2 mph 83% 0 in 0 W/m2
22:23 63.7 °F 58.5 °F 30.1 in Calm   2.2 mph 83% 0 in 0 W/m2
22:28 63.7 °F 58.5 °F 30.1 in Calm   2.2 mph 83% 0 in 0 W/m2
22:33 63.5 °F 58.3 °F 30.1 in Calm   0.7 mph 83% 0 in 0 W/m2
22:38 63.3 °F 58.5 °F 30.1 in Calm   0.7 mph 84% 0 in 0 W/m2
22:43 63.3 °F 58.5 °F 30.1 in Calm   0.7 mph 84% 0 in 0 W/m2
23:00 63.1 °F 58.3 °F 30.1 in Calm   1.6 mph 84% 0 in 0 W/m2
23:05 63.1 °F 58.3 °F 30.1 in Calm   1.6 mph 84% 0 in 0 W/m2
23:10 63 °F 58.1 °F 30.1 in Calm   0.7 mph 84% 0 in 0 W/m2
23:15 62.6 °F 57.7 °F 30.1 in Calm     84% 0 in 0 W/m2
23:20 62.6 °F 57.7 °F 30.1 in Calm     84% 0 in 0 W/m2
23:25 62.2 °F 57.9 °F 30.1 in Calm     86% 0 in 0 W/m2
23:30 62.2 °F 57.9 °F 30.1 in Calm     86% 0 in 0 W/m2
23:35 62.2 °F 57.9 °F 30.1 in Calm     86% 0 in 0 W/m2
23:40 62.2 °F 58.3 °F 30.1 in Calm   0.7 mph 87% 0 in 0 W/m2
23:45 62.2 °F 58.3 °F 30.1 in Calm   0.7 mph 87% 0 in 0 W/m2
23:50 62.2 °F 58.3 °F 30.1 in Calm   0.7 mph 87% 0 in 0 W/m2
23:55 62.2 °F 58.3 °F 30.1 in Calm   0.7 mph 87% 0 in 0 W/m2
Northern Hawkes Bay. New Zealand Historic Data
Compliments of Weather Underground - 2.25 mb